MyWebLog Booking Liste

 

Nyhetsmelding

Kopirett © 2015 Værnes Flyklubb. Alle rettigheter reservert.
Joomla! er fri programvare utgitt under GNU/GPL License.
 

METAR

ENVA 221850Z 13004KT 9999 -RA FEW013 BKN031 05/04 Q1003 TEMPO 30015KT 4000 SHRAGS BKN012CB RMK WIND 670FT 17005KT

TAF COR ENVA 2218/2318 24007KT 9999 -SHRA FEW015 BKN030 TEMPO 2218/2306 30015KT 4000 SHRAGS SCT015CB BKN020 BECMG 2306/2309 27020G30KT TEMPO 2306/2318 SHRAGS BKN014CB